^^
Saratoga-Weather Station Historical Data
Daily Summary for June 24, 2022 Units:  Metric    English   Both
Daily Weekly Monthly Yearly Custom
  High: Low: Average:
Temperature: 23.1 °C 15.8 °C 19.2 °C
Dew Point: 18.8 °C 14.8 °C 16.6 °C
Humidity: 94% 70% 86%
Wind Speed: 14.3km/h 0km/h 3.1km/h
Wind Gust: 20.9km/h - -
Wind- - SW
Pressure: 1010.2 hPa 1006.4 hPa -
Precipitation: 5.1 mm    
Historical Graphs
 
 
Tabular Data for June 24, 2022
Time Temperature Dew Point Pressure Wind Wind Speed Wind Gust Humidity Rainfall Rate (Hourly) solar
00:02 17.9 °C 16.8 °C 1008.1 hPa Calm     93% 0.0 mm 0 W/m2
00:07 17.9 °C 16.8 °C 1008.1 hPa Calm   1.6 km/h 93% 0.0 mm 0 W/m2
00:12 17.8 °C 16.8 °C 1007.8 hPa Calm   1.6 km/h 94% 0.0 mm 0 W/m2
00:17 17.8 °C 16.8 °C 1007.8 hPa Calm   1.6 km/h 94% 0.0 mm 0 W/m2
00:22 17.8 °C 16.8 °C 1007.8 hPa WSW 1.4 km/h 3.2 km/h 94% 0.0 mm 0 W/m2
00:27 17.7 °C 16.7 °C 1007.8 hPa Calm   1.6 km/h 94% 0.0 mm 0 W/m2
00:32 17.6 °C 16.6 °C 1007.5 hPa SW 3.2 km/h 4.8 km/h 94% 0.0 mm 0 W/m2
00:37 17.5 °C 16.5 °C 1007.8 hPa Calm     94% 0.0 mm 0 W/m2
00:42 17.4 °C 16.4 °C 1007.5 hPa Calm   4.8 km/h 94% 0.0 mm 0 W/m2
00:47 17.4 °C 16.4 °C 1007.5 hPa Calm     94% 0.0 mm 0 W/m2
00:52 17.3 °C 16.3 °C 1007.8 hPa Calm   4.8 km/h 94% 0.0 mm 0 W/m2
00:57 17.2 °C 16.2 °C 1007.8 hPa Calm     94% 0.0 mm 0 W/m2
01:02 17.2 °C 16.2 °C 1007.8 hPa Calm   3.2 km/h 94% 0.0 mm 0 W/m2
01:07 17.2 °C 16.2 °C 1007.8 hPa Calm   3.2 km/h 94% 0.0 mm 0 W/m2
01:12 17.2 °C 16.2 °C 1007.8 hPa Calm   1.6 km/h 94% 0.0 mm 0 W/m2
01:17 17.2 °C 16.2 °C 1007.8 hPa Calm     94% 0.0 mm 0 W/m2
01:22 17.1 °C 16.1 °C 1007.8 hPa NE 1.4 km/h 3.2 km/h 94% 0.0 mm 0 W/m2
01:27 17.2 °C 16.2 °C 1007.8 hPa Calm     94% 0.0 mm 0 W/m2
01:32 17.2 °C 16.1 °C 1007.8 hPa NW 1.4 km/h 3.2 km/h 93% 0.0 mm 0 W/m2
01:37 17.2 °C 16.1 °C 1007.8 hPa WNW 1.4 km/h 4.8 km/h 93% 0.0 mm 0 W/m2
01:42 17.3 °C 16.2 °C 1007.8 hPa Calm   1.6 km/h 93% 0.0 mm 0 W/m2
01:47 17.3 °C 16.2 °C 1007.8 hPa West 1.4 km/h 4.8 km/h 93% 0.0 mm 0 W/m2
01:52 17.4 °C 16.3 °C 1007.8 hPa Calm   6.4 km/h 93% 0.0 mm 0 W/m2
01:57 17.4 °C 16.1 °C 1007.8 hPa Calm   4.8 km/h 92% 0.0 mm 0 W/m2
02:02 17.5 °C 16.2 °C 1007.8 hPa Calm   1.6 km/h 92% 0.0 mm 0 W/m2
02:07 17.5 °C 16.2 °C 1007.8 hPa Calm   1.6 km/h 92% 0.0 mm 0 W/m2
02:12 17.4 °C 16.1 °C 1007.8 hPa NNW 1.4 km/h 1.6 km/h 92% 0.0 mm 0 W/m2
02:17 17.4 °C 16.1 °C 1007.8 hPa Calm   3.2 km/h 92% 0.0 mm 0 W/m2
02:22 17.4 °C 16.1 °C 1007.8 hPa Calm   3.2 km/h 92% 0.0 mm 0 W/m2
02:27 17.4 °C 16.1 °C 1007.8 hPa Calm   1.6 km/h 92% 0.0 mm 0 W/m2
02:32 17.4 °C 16.1 °C 1007.8 hPa NNE 1.4 km/h 4.8 km/h 92% 0.0 mm 0 W/m2
02:37 17.5 °C 16.2 °C 1007.8 hPa Calm   1.6 km/h 92% 0.0 mm 0 W/m2
02:42 17.4 °C 16.1 °C 1007.5 hPa Calm   3.2 km/h 92% 0.0 mm 0 W/m2
02:47 17.5 °C 16.2 °C 1007.5 hPa Calm   1.6 km/h 92% 0.0 mm 0 W/m2
02:52 17.5 °C 16.4 °C 1007.5 hPa Calm   1.6 km/h 93% 0.0 mm 0 W/m2
02:57 17.5 °C 16.4 °C 1007.5 hPa Calm   1.6 km/h 93% 0.0 mm 0 W/m2
03:02 17.5 °C 16.4 °C 1007.5 hPa NW 1.4 km/h 6.4 km/h 93% 0.0 mm 0 W/m2
03:07 17.5 °C 16.4 °C 1007.5 hPa West 1.4 km/h 3.2 km/h 93% 0.0 mm 0 W/m2
03:12 17.6 °C 16.3 °C 1007.1 hPa WNW 1.4 km/h 6.4 km/h 92% 0.0 mm 0 W/m2
03:17 17.6 °C 16.3 °C 1007.1 hPa Calm   4.8 km/h 92% 0.0 mm 0 W/m2
03:22 17.6 °C 16.3 °C 1007.1 hPa WNW 3.2 km/h 6.4 km/h 92% 0.0 mm 0 W/m2
03:27 17.6 °C 16.3 °C 1007.1 hPa NNW 1.4 km/h 3.2 km/h 92% 0.0 mm 0 W/m2
03:32 17.6 °C 16.3 °C 1007.5 hPa WNW 1.4 km/h 6.4 km/h 92% 0.0 mm 0 W/m2
03:37 17.6 °C 16.3 °C 1007.5 hPa NNW 3.2 km/h 4.8 km/h 92% 0.0 mm 0 W/m2
03:42 17.6 °C 16.3 °C 1007.5 hPa NNE 1.4 km/h 4.8 km/h 92% 0.0 mm 0 W/m2
03:47 17.6 °C 16.3 °C 1007.5 hPa West 3.2 km/h 11.3 km/h 92% 0.0 mm 0 W/m2
03:52 17.6 °C 16.3 °C 1007.5 hPa NNW 13 km/h 14.5 km/h 92% 0.0 mm 0 W/m2
03:57 17.3 °C 15.8 °C 1007.5 hPa West 6.4 km/h 11.3 km/h 91% 0.0 mm 0 W/m2
04:02 17.2 °C 15.7 °C 1007.5 hPa West 9.7 km/h 12.9 km/h 91% 0.0 mm 0 W/m2
04:07 17 °C 15.7 °C 1007.5 hPa WSW 7.9 km/h 16.1 km/h 92% 0.0 mm 0 W/m2
04:13 16.9 °C 15.6 °C 1007.5 hPa WNW 4.7 km/h 6.4 km/h 92% 0.0 mm 0 W/m2
04:18 16.8 °C 15.5 °C 1007.5 hPa North 6.4 km/h 16.1 km/h 92% 0.2 mm 0 W/m2
04:23 16.7 °C 15.4 °C 1007.5 hPa NW 3.2 km/h 6.4 km/h 92% 0.5 mm 0 W/m2
04:28 16.7 °C 15.6 °C 1007.5 hPa West 3.2 km/h 6.4 km/h 93% 0.5 mm 0 W/m2
04:33 16.7 °C 15.6 °C 1007.1 hPa West 4.7 km/h 14.5 km/h 93% 0.5 mm 0 W/m2
04:38 16.7 °C 15.6 °C 1007.1 hPa NW 4.7 km/h 12.9 km/h 93% 0.5 mm 0 W/m2
04:43 16.7 °C 15.6 °C 1007.1 hPa WNW 3.2 km/h 14.5 km/h 93% 0.5 mm 0 W/m2
04:48 16.7 °C 15.6 °C 1007.1 hPa WNW 3.2 km/h 11.3 km/h 93% 0.5 mm 0 W/m2
04:53 16.7 °C 15.6 °C 1007.1 hPa NW 4.7 km/h 12.9 km/h 93% 0.5 mm 0 W/m2
04:58 16.7 °C 15.6 °C 1007.1 hPa WSW 4.7 km/h 6.4 km/h 93% 0.5 mm 0 W/m2
05:03 16.7 °C 15.6 °C 1007.1 hPa West 9.7 km/h 11.3 km/h 93% 0.5 mm 0 W/m2
05:08 16.7 °C 15.6 °C 1006.8 hPa NW 3.2 km/h 6.4 km/h 93% 0.5 mm 0 W/m2
05:13 16.7 °C 15.6 °C 1006.8 hPa SW 6.4 km/h 6.4 km/h 93% 0.5 mm 0 W/m2
05:18 16.7 °C 15.6 °C 1006.8 hPa NW 3.2 km/h 6.4 km/h 93% 0.2 mm 0 W/m2
05:23 16.7 °C 15.6 °C 1006.8 hPa West 1.4 km/h 8 km/h 93% 0.0 mm 0 W/m2
05:28 16.7 °C 15.6 °C 1006.8 hPa WSW 7.9 km/h 16.1 km/h 93% 0.0 mm 0 W/m2
05:33 16.7 °C 15.6 °C 1007.1 hPa West 1.4 km/h 11.3 km/h 93% 0.0 mm 0 W/m2
05:38 16.7 °C 15.6 °C 1007.1 hPa NNW 6.4 km/h 16.1 km/h 93% 0.0 mm 0 W/m2
05:43 16.7 °C 15.6 °C 1007.1 hPa NNW 1.4 km/h 11.3 km/h 93% 0.0 mm 0 W/m2
05:48 16.7 °C 15.6 °C 1007.1 hPa WNW 3.2 km/h 6.4 km/h 93% 0.0 mm 0 W/m2
05:53 16.7 °C 15.6 °C 1007.1 hPa NW 1.4 km/h 3.2 km/h 93% 0.0 mm 5 W/m2
05:58 16.7 °C 15.6 °C 1007.1 hPa West 3.2 km/h 6.4 km/h 93% 0.0 mm 7 W/m2
06:03 16.7 °C 15.6 °C 1007.1 hPa WNW 4.7 km/h 6.4 km/h 93% 0.0 mm 7 W/m2
06:08 16.7 °C 15.6 °C 1007.1 hPa WNW 4.7 km/h 8 km/h 93% 0.0 mm 9 W/m2
06:13 16.7 °C 15.6 °C 1007.1 hPa WNW 6.4 km/h 6.4 km/h 93% 0.0 mm 9 W/m2
06:18 16.7 °C 15.6 °C 1007.5 hPa WNW 1.4 km/h 6.4 km/h 93% 0.0 mm 11 W/m2
06:23 16.7 °C 15.6 °C 1007.5 hPa WNW 3.2 km/h 9.7 km/h 93% 0.0 mm 11 W/m2
06:28 16.8 °C 15.7 °C 1007.5 hPa WNW 4.7 km/h 11.3 km/h 93% 0.0 mm 11 W/m2
06:33 16.8 °C 15.7 °C 1007.5 hPa WNW 4.7 km/h 11.3 km/h 93% 0.0 mm 16 W/m2
06:38 16.8 °C 15.7 °C 1007.5 hPa WNW 9.7 km/h 11.3 km/h 93% 0.0 mm 19 W/m2
06:43 16.8 °C 15.7 °C 1007.5 hPa WSW 6.4 km/h 12.9 km/h 93% 0.0 mm 21 W/m2
06:48 16.8 °C 15.7 °C 1007.5 hPa West 3.2 km/h 9.7 km/h 93% 0.0 mm 30 W/m2
06:53 16.8 °C 15.7 °C 1007.1 hPa NNW 1.4 km/h 8 km/h 93% 0.0 mm 37 W/m2
06:58 16.8 °C 15.7 °C 1007.1 hPa WNW 1.4 km/h 8 km/h 93% 0.0 mm 35 W/m2
07:03 16.8 °C 15.7 °C 1007.1 hPa WNW 1.4 km/h 6.4 km/h 93% 0.0 mm 39 W/m2
07:08 16.8 °C 15.7 °C 1007.5 hPa NW 6.4 km/h 6.4 km/h 93% 0.0 mm 42 W/m2
07:13 16.9 °C 15.8 °C 1007.5 hPa WNW 3.2 km/h 6.4 km/h 93% 0.0 mm 46 W/m2
07:18 16.9 °C 15.8 °C 1007.1 hPa NW 3.2 km/h 6.4 km/h 93% 0.0 mm 56 W/m2
07:23 16.9 °C 15.8 °C 1007.1 hPa West 4.7 km/h 6.4 km/h 93% 0.0 mm 69 W/m2
07:28 17 °C 15.9 °C 1007.1 hPa West 3.2 km/h 9.7 km/h 93% 0.0 mm 84 W/m2
07:33 17 °C 15.9 °C 1007.1 hPa NW 4.7 km/h 4.8 km/h 93% 0.0 mm 127 W/m2
07:38 17.1 °C 15.8 °C 1007.1 hPa NNW 3.2 km/h 6.4 km/h 92% 0.0 mm 234 W/m2
07:43 17.3 °C 16 °C 1007.1 hPa NNW 4.7 km/h 4.8 km/h 92% 0.0 mm 250 W/m2
07:48 17.5 °C 16.2 °C 1007.1 hPa WNW 4.7 km/h 6.4 km/h 92% 0.0 mm 239 W/m2
07:53 17.7 °C 16.2 °C 1007.1 hPa WNW 4.7 km/h 9.7 km/h 91% 0.0 mm 276 W/m2
07:58 17.9 °C 16.4 °C 1007.1 hPa SW 1.4 km/h 4.8 km/h 91% 0.0 mm 301 W/m2
08:03 18.1 °C 16.3 °C 1007.1 hPa NNW 3.2 km/h 12.9 km/h 89% 0.0 mm 304 W/m2
08:08 18.2 °C 16.4 °C 1007.1 hPa WNW 1.4 km/h 14.5 km/h 89% 0.0 mm 243 W/m2
08:13 18.3 °C 16.5 °C 1007.1 hPa WSW 4.7 km/h 6.4 km/h 89% 0.0 mm 369 W/m2
08:18 18.6 °C 16.6 °C 1007.1 hPa West 6.4 km/h 9.7 km/h 88% 0.0 mm 381 W/m2
08:23 18.7 °C 16.5 °C 1007.1 hPa NW 3.2 km/h 6.4 km/h 87% 0.0 mm 345 W/m2
08:28 18.8 °C 16.6 °C 1007.1 hPa West 6.4 km/h 11.3 km/h 87% 0.0 mm 176 W/m2
08:33 19 °C 17 °C 1007.1 hPa West 3.2 km/h 8 km/h 88% 0.0 mm 211 W/m2
08:38 19.3 °C 16.9 °C 1007.1 hPa NNW 1.4 km/h 17.7 km/h 86% 0.0 mm 153 W/m2
08:43 19.3 °C 16.7 °C 1007.1 hPa NNW 4.7 km/h 6.4 km/h 85% 0.0 mm 134 W/m2
08:48 19.5 °C 16.9 °C 1007.1 hPa West 14.3 km/h 19.3 km/h 85% 0.0 mm 141 W/m2
08:53 19.4 °C 17 °C 1007.5 hPa West 4.7 km/h 6.4 km/h 86% 0.0 mm 149 W/m2
08:58 19.4 °C 16.8 °C 1007.5 hPa WNW 7.9 km/h 19.3 km/h 85% 0.0 mm 223 W/m2
09:03 19.4 °C 16.8 °C 1007.5 hPa NNW 7.9 km/h 12.9 km/h 85% 0.0 mm 230 W/m2
09:08 19.2 °C 16.6 °C 1007.5 hPa WSW 6.4 km/h 16.1 km/h 85% 0.0 mm 225 W/m2
09:13 19.1 °C 16.7 °C 1007.5 hPa WNW 14.3 km/h 16.1 km/h 86% 0.0 mm 195 W/m2
09:18 18.9 °C 16.3 °C 1007.5 hPa NW 6.4 km/h 12.9 km/h 85% 0.0 mm 144 W/m2
09:23 18.8 °C 16.4 °C 1007.5 hPa WSW 7.9 km/h 11.3 km/h 86% 0.0 mm 149 W/m2
09:28 18.8 °C 16.2 °C 1007.5 hPa West 6.4 km/h 8 km/h 85% 0.0 mm 165 W/m2
09:33 18.8 °C 16.2 °C 1007.5 hPa NW 6.4 km/h 8 km/h 85% 0.0 mm 169 W/m2
09:38 18.8 °C 16.4 °C 1007.5 hPa NW 7.9 km/h 14.5 km/h 86% 0.0 mm 162 W/m2
09:43 19 °C 16.6 °C 1007.1 hPa NW 7.9 km/h 11.3 km/h 86% 0.0 mm 128 W/m2
09:48 19 °C 16.4 °C 1007.1 hPa WNW 6.4 km/h 9.7 km/h 85% 0.0 mm 134 W/m2
09:53 19 °C 16.4 °C 1007.1 hPa WNW 3.2 km/h 11.3 km/h 85% 0.0 mm 156 W/m2
09:58 19.1 °C 16.5 °C 1007.1 hPa NW 4.7 km/h 11.3 km/h 85% 0.0 mm 267 W/m2
10:03 19.4 °C 16.6 °C 1007.1 hPa WNW 6.4 km/h 20.9 km/h 84% 0.0 mm 220 W/m2
10:08 19.7 °C 16.9 °C 1007.1 hPa NW 6.4 km/h 12.9 km/h 84% 0.0 mm 253 W/m2
10:13 19.9 °C 17.1 °C 1007.1 hPa WSW 6.4 km/h 16.1 km/h 84% 0.0 mm 174 W/m2
10:18 19.9 °C 16.9 °C 1007.1 hPa West 9.7 km/h 14.5 km/h 83% 0.0 mm 200 W/m2
10:23 19.9 °C 16.7 °C 1007.5 hPa West 4.7 km/h 14.5 km/h 82% 0.0 mm 158 W/m2
10:28 19.9 °C 16.7 °C 1007.1 hPa WNW 4.7 km/h 8 km/h 82% 0.0 mm 257 W/m2
10:33 20.1 °C 16.9 °C 1007.1 hPa WNW 4.7 km/h 14.5 km/h 82% 0.0 mm 220 W/m2
10:38 20.3 °C 17.1 °C 1006.8 hPa WNW 4.7 km/h 11.3 km/h 82% 0.0 mm 229 W/m2
10:43 20.4 °C 17 °C 1006.8 hPa NW 9.7 km/h 17.7 km/h 81% 0.0 mm 171 W/m2
10:48 20.5 °C 16.9 °C 1006.8 hPa NW 4.7 km/h 19.3 km/h 80% 0.0 mm 158 W/m2
10:53 20.7 °C 17.1 °C 1006.8 hPa WNW 6.4 km/h 12.9 km/h 80% 0.0 mm 141 W/m2
10:58 20.8 °C 17.2 °C 1006.8 hPa WNW 6.4 km/h 6.4 km/h 80% 0.0 mm 114 W/m2
11:03 20.9 °C 16.7 °C 1006.8 hPa SW 1.4 km/h 8 km/h 77% 0.0 mm 779 W/m2
11:08 21.3 °C 16.9 °C 1006.8 hPa WNW 6.4 km/h 11.3 km/h 76% 0.0 mm 192 W/m2
11:13 21.4 °C 17 °C 1006.8 hPa West 1.4 km/h 6.4 km/h 76% 0.0 mm 218 W/m2
11:18 21.8 °C 17.4 °C 1006.8 hPa West 3.2 km/h 8 km/h 76% 0.0 mm 221 W/m2
11:23 21.9 °C 17.3 °C 1007.1 hPa WNW 1.4 km/h 6.4 km/h 75% 0.0 mm 301 W/m2
11:28 22 °C 17.4 °C 1006.8 hPa West 4.7 km/h 6.4 km/h 75% 0.0 mm 497 W/m2
11:33 22.3 °C 17.7 °C 1006.8 hPa NW 6.4 km/h 6.4 km/h 75% 0.0 mm 1049 W/m2
11:38 22.4 °C 17.3 °C 1006.8 hPa SE 3.2 km/h 16.1 km/h 73% 0.0 mm 281 W/m2
11:43 22.4 °C 17.3 °C 1006.8 hPa Calm   9.7 km/h 73% 0.0 mm 258 W/m2
11:48 22.4 °C 17.3 °C 1006.8 hPa West 3.2 km/h 12.9 km/h 73% 0.0 mm 782 W/m2
11:53 22.6 °C 17.3 °C 1006.8 hPa WNW 7.9 km/h 14.5 km/h 72% 0.0 mm 856 W/m2
11:58 22.7 °C 16.9 °C 1006.8 hPa NW 7.9 km/h 12.9 km/h 70% 0.0 mm 197 W/m2
12:03 22.6 °C 16.8 °C 1006.8 hPa SW 3.2 km/h 11.3 km/h 70% 0.0 mm 188 W/m2
12:08 22.4 °C 16.7 °C 1006.8 hPa West 6.4 km/h 14.5 km/h 70% 0.0 mm 144 W/m2
12:14 22.2 °C 16.7 °C 1006.8 hPa West 3.2 km/h 6.4 km/h 71% 0.0 mm 176 W/m2
12:19 22.1 °C 16.8 °C 1006.8 hPa WNW 3.2 km/h 9.7 km/h 72% 0.0 mm 311 W/m2
12:24 22.2 °C 16.9 °C 1006.8 hPa SW 1.4 km/h 11.3 km/h 72% 0.0 mm 366 W/m2
12:29 22.3 °C 17 °C 1006.8 hPa Calm   4.8 km/h 72% 0.0 mm 272 W/m2
12:34 22.4 °C 16.9 °C 1006.8 hPa West 1.4 km/h 3.2 km/h 71% 0.0 mm 234 W/m2
12:39 22.4 °C 16.9 °C 1006.8 hPa Calm   4.8 km/h 71% 0.0 mm 295 W/m2
12:44 22.4 °C 16.7 °C 1006.8 hPa West 6.4 km/h 6.4 km/h 70% 0.0 mm 211 W/m2
12:49 22.3 °C 17 °C 1006.4 hPa Calm   4.8 km/h 72% 0.0 mm 149 W/m2
12:54 22.3 °C 17.4 °C 1006.4 hPa Calm   3.2 km/h 74% 0.0 mm 248 W/m2
12:59 22.3 °C 18.3 °C 1006.8 hPa WSW 4.7 km/h 4.8 km/h 78% 0.0 mm 336 W/m2
13:04 22 °C 17.8 °C 1006.8 hPa WNW 3.2 km/h 9.7 km/h 77% 0.0 mm 294 W/m2
13:09 21.8 °C 17.8 °C 1006.8 hPa WNW 1.4 km/h 4.8 km/h 78% 0.0 mm 209 W/m2
13:14 21.7 °C 17.5 °C 1006.8 hPa West 1.4 km/h 6.4 km/h 77% 0.0 mm 327 W/m2
13:19 21.8 °C 18 °C 1006.4 hPa NW 3.2 km/h 8 km/h 79% 0.0 mm 374 W/m2
13:24 22.1 °C 18.1 °C 1006.4 hPa NNW 4.7 km/h 8 km/h 78% 0.0 mm 954 W/m2
13:29 22.5 °C 17.8 °C 1006.4 hPa NW 6.4 km/h 6.4 km/h 75% 0.0 mm 939 W/m2
13:34 22.8 °C 18.1 °C 1006.4 hPa SSW 4.7 km/h 9.7 km/h 75% 0.0 mm 933 W/m2
13:39 23.1 °C 18 °C 1006.4 hPa WNW 7.9 km/h 11.3 km/h 73% 0.0 mm 367 W/m2
13:44 23 °C 17.5 °C 1006.4 hPa West 6.4 km/h 14.5 km/h 71% 0.0 mm 204 W/m2
13:49 22.8 °C 17.7 °C 1006.4 hPa NW 6.4 km/h 11.3 km/h 73% 0.0 mm 118 W/m2
13:54 22.6 °C 17.3 °C 1006.4 hPa West 1.4 km/h 14.5 km/h 72% 0.0 mm 76 W/m2
13:59 22.3 °C 17.9 °C 1006.8 hPa NW 3.2 km/h 17.7 km/h 76% 0.8 mm 104 W/m2
14:04 21.9 °C 18.7 °C 1006.8 hPa SW 1.4 km/h 1.6 km/h 82% 2.5 mm 183 W/m2
14:09 21.5 °C 18.7 °C 1007.1 hPa South 1.4 km/h 11.3 km/h 84% 2.5 mm 265 W/m2
14:14 21.2 °C 18.6 °C 1007.1 hPa East 3.2 km/h 4.8 km/h 85% 2.5 mm 264 W/m2
14:19 20.8 °C 18.4 °C 1006.8 hPa ESE 4.7 km/h 4.8 km/h 86% 2.5 mm 165 W/m2
14:24 20.7 °C 18.5 °C 1007.1 hPa Calm   3.2 km/h 87% 2.5 mm 148 W/m2
14:29 20.5 °C 18.4 °C 1007.1 hPa ESE 3.2 km/h 4.8 km/h 88% 2.5 mm 127 W/m2
14:34 20.3 °C 18.2 °C 1007.1 hPa East 3.2 km/h 4.8 km/h 88% 2.5 mm 121 W/m2
14:39 20.2 °C 18.1 °C 1007.1 hPa ENE 3.2 km/h 4.8 km/h 88% 2.5 mm 97 W/m2
14:44 20.1 °C 18 °C 1007.1 hPa East 1.4 km/h 1.6 km/h 88% 2.5 mm 79 W/m2
14:49 20.1 °C 18.2 °C 1007.1 hPa Calm   1.6 km/h 89% 2.5 mm 60 W/m2
14:54 20.1 °C 18.4 °C 1006.8 hPa Calm     90% 2.5 mm 49 W/m2
14:59 20.1 °C 18.4 °C 1007.1 hPa Calm   1.6 km/h 90% 1.8 mm 46 W/m2
15:04 19.9 °C 18 °C 1007.1 hPa Calm     89% 0.0 mm 69 W/m2
15:09 19.8 °C 18.1 °C 1007.1 hPa Calm   4.8 km/h 90% 0.5 mm 125 W/m2
15:14 19.7 °C 18 °C 1007.1 hPa SE 4.7 km/h 4.8 km/h 90% 0.5 mm 232 W/m2
15:19 19.7 °C 18 °C 1007.1 hPa ESE 3.2 km/h 6.4 km/h 90% 0.5 mm 316 W/m2
15:24 19.7 °C 18.2 °C 1007.1 hPa East 1.4 km/h 6.4 km/h 91% 0.5 mm 213 W/m2
15:29 19.6 °C 18.1 °C 1007.1 hPa ESE 6.4 km/h 6.4 km/h 91% 0.5 mm 220 W/m2
15:34 19.6 °C 18.1 °C 1007.1 hPa East 7.9 km/h 8 km/h 91% 0.5 mm 403 W/m2
15:39 19.8 °C 18.5 °C 1007.1 hPa ENE 3.2 km/h 6.4 km/h 92% 0.5 mm 700 W/m2
15:44 20.1 °C 18.8 °C 1007.1 hPa SW 3.2 km/h 11.3 km/h 92% 0.5 mm 566 W/m2
15:49 20.1 °C 18.6 °C 1007.1 hPa East 4.7 km/h 11.3 km/h 91% 0.5 mm 350 W/m2
15:54 20 °C 18.1 °C 1006.8 hPa ESE 6.4 km/h 12.9 km/h 89% 0.5 mm 466 W/m2
15:59 20.1 °C 18.2 °C 1006.8 hPa NE 1.4 km/h 9.7 km/h 89% 0.5 mm 278 W/m2
16:04 20.3 °C 18.4 °C 1006.8 hPa ENE 3.2 km/h 12.9 km/h 89% 0.5 mm 243 W/m2
16:09 20.3 °C 18.4 °C 1006.8 hPa ESE 6.4 km/h 9.7 km/h 89% 0.0 mm 223 W/m2
16:14 20.4 °C 18.3 °C 1006.8 hPa ESE 9.7 km/h 12.9 km/h 88% 0.0 mm 308 W/m2
16:19 20.4 °C 18.3 °C 1007.1 hPa ESE 1.4 km/h 6.4 km/h 88% 0.0 mm 267 W/m2
16:24 20.5 °C 18.4 °C 1007.1 hPa East 9.7 km/h 9.7 km/h 88% 0.0 mm 262 W/m2
16:29 20.6 °C 18.5 °C 1007.1 hPa East 1.4 km/h 1.6 km/h 88% 0.0 mm 264 W/m2
16:34 20.7 °C 18.5 °C 1007.1 hPa NE 4.7 km/h 6.4 km/h 87% 0.0 mm 283 W/m2
16:39 20.9 °C 18.3 °C 1007.1 hPa East 1.4 km/h 4.8 km/h 85% 0.0 mm 425 W/m2
16:44 21.1 °C 17.7 °C 1007.1 hPa East 1.4 km/h 6.4 km/h 81% 0.0 mm 403 W/m2
16:49 21.4 °C 17.6 °C 1007.1 hPa WNW 4.7 km/h 11.3 km/h 79% 0.0 mm 480 W/m2
16:54 21.6 °C 18.2 °C 1007.1 hPa ESE 6.4 km/h 6.4 km/h 81% 0.0 mm 357 W/m2
16:59 21.7 °C 18.1 °C 1007.1 hPa ENE 1.4 km/h 11.3 km/h 80% 0.0 mm 299 W/m2
17:04 21.6 °C 16.8 °C 1007.1 hPa NNW 1.4 km/h 4.8 km/h 74% 0.0 mm 276 W/m2
17:09 21.6 °C 16.6 °C 1007.1 hPa ENE 1.4 km/h 3.2 km/h 73% 0.0 mm 283 W/m2
17:14 21.7 °C 16.6 °C 1007.1 hPa SE 1.4 km/h 6.4 km/h 73% 0.0 mm 237 W/m2
17:19 21.6 °C 16.6 °C 1007.1 hPa Calm   4.8 km/h 73% 0.0 mm 197 W/m2
17:24 21.5 °C 16.2 °C 1007.1 hPa Calm   4.8 km/h 72% 0.0 mm 193 W/m2
17:29 21.4 °C 16.4 °C 1007.1 hPa ESE 3.2 km/h 4.8 km/h 73% 0.0 mm 202 W/m2
17:34 21.3 °C 16.5 °C 1007.1 hPa Calm   3.2 km/h 74% 0.0 mm 207 W/m2
17:39 21.3 °C 16.7 °C 1007.1 hPa SSE 1.4 km/h 3.2 km/h 75% 0.0 mm 199 W/m2
17:44 21.3 °C 16.9 °C 1007.1 hPa SSW 4.7 km/h 4.8 km/h 76% 0.0 mm 197 W/m2
17:49 21.4 °C 17.4 °C 1007.1 hPa Calm   4.8 km/h 78% 0.0 mm 188 W/m2
17:54 21.3 °C 17.1 °C 1007.1 hPa ESE 1.4 km/h 4.8 km/h 77% 0.0 mm 156 W/m2
17:59 21.3 °C 17.1 °C 1007.1 hPa East 1.4 km/h 4.8 km/h 77% 0.0 mm 141 W/m2
18:04 21.3 °C 16.9 °C 1007.1 hPa South 1.4 km/h 3.2 km/h 76% 0.0 mm 165 W/m2
18:09 21.3 °C 16.7 °C 1007.1 hPa Calm   3.2 km/h 75% 0.0 mm 234 W/m2
18:14 21.4 °C 16.6 °C 1007.1 hPa Calm   4.8 km/h 74% 0.0 mm 248 W/m2
18:19 21.6 °C 17.2 °C 1007.1 hPa SW 1.4 km/h 4.8 km/h 76% 0.0 mm 172 W/m2
18:25 21.7 °C 17.1 °C 1007.1 hPa SSE 3.2 km/h 4.8 km/h 75% 0.0 mm 209 W/m2
18:30 21.7 °C 17.1 °C 1007.1 hPa NW 4.7 km/h 11.3 km/h 75% 0.0 mm 221 W/m2
18:35 21.7 °C 16.9 °C 1006.8 hPa West 3.2 km/h 9.7 km/h 74% 0.0 mm 260 W/m2
18:40 21.8 °C 17 °C 1007.1 hPa West 3.2 km/h 6.4 km/h 74% 0.0 mm 367 W/m2
18:45 21.9 °C 17.1 °C 1007.1 hPa NNE 3.2 km/h 8 km/h 74% 0.0 mm 390 W/m2
18:50 22.2 °C 17.6 °C 1007.1 hPa ENE 6.4 km/h 8 km/h 75% 0.0 mm 330 W/m2
18:55 22.4 °C 17.5 °C 1007.1 hPa NNW 3.2 km/h 6.4 km/h 74% 0.0 mm 211 W/m2
19:00 22.4 °C 17.3 °C 1007.1 hPa WNW 3.2 km/h 6.4 km/h 73% 0.0 mm 176 W/m2
19:05 22.5 °C 17.4 °C 1007.5 hPa NW 1.4 km/h 4.8 km/h 73% 0.0 mm 167 W/m2
19:10 22.7 °C 17.4 °C 1007.1 hPa NW 4.7 km/h 4.8 km/h 72% 0.0 mm 172 W/m2
19:15 22.8 °C 17.5 °C 1007.5 hPa North 4.7 km/h 11.3 km/h 72% 0.0 mm 151 W/m2
19:20 22.7 °C 17.4 °C 1007.5 hPa ESE 1.4 km/h 1.6 km/h 72% 0.0 mm 151 W/m2
19:25 22.7 °C 17.2 °C 1007.5 hPa NNE 1.4 km/h 4.8 km/h 71% 0.0 mm 137 W/m2
19:30 22.4 °C 16.9 °C 1007.5 hPa NE 3.2 km/h 3.2 km/h 71% 0.0 mm 137 W/m2
19:35 22.3 °C 16.8 °C 1007.8 hPa WSW 3.2 km/h 4.8 km/h 71% 0.0 mm 134 W/m2
19:40 22.3 °C 17 °C 1007.8 hPa NNW 4.7 km/h 4.8 km/h 72% 0.0 mm 107 W/m2
19:45 22.2 °C 16.7 °C 1007.8 hPa NNW 1.4 km/h 3.2 km/h 71% 0.0 mm 97 W/m2
19:50 22.1 °C 16.8 °C 1007.8 hPa NE 4.7 km/h 9.7 km/h 72% 0.0 mm 90 W/m2
19:55 21.8 °C 17.4 °C 1007.8 hPa East 9.7 km/h 12.9 km/h 76% 0.0 mm 93 W/m2
20:00 21.5 °C 17.1 °C 1007.8 hPa ENE 3.2 km/h 11.3 km/h 76% 0.0 mm 62 W/m2
20:05 21.3 °C 17.1 °C 1007.8 hPa ESE 3.2 km/h 12.9 km/h 77% 0.0 mm 76 W/m2
20:10 21.2 °C 17.2 °C 1007.8 hPa East 3.2 km/h 6.4 km/h 78% 0.0 mm 70 W/m2
20:15 21.1 °C 17.3 °C 1008.1 hPa Calm   6.4 km/h 79% 0.0 mm 47 W/m2
20:20 20.8 °C 17 °C 1007.8 hPa NNE 3.2 km/h 9.7 km/h 79% 0.0 mm 26 W/m2
20:25 20.6 °C 16.8 °C 1008.1 hPa NNE 4.7 km/h 6.4 km/h 79% 0.0 mm 18 W/m2
20:30 20.3 °C 16.7 °C 1008.1 hPa NE 1.4 km/h 3.2 km/h 80% 0.0 mm 14 W/m2
20:35 20.2 °C 16.6 °C 1008.1 hPa NNE 3.2 km/h 4.8 km/h 80% 0.0 mm 9 W/m2
20:40 20.1 °C 16.7 °C 1008.5 hPa East 1.4 km/h 6.4 km/h 81% 0.0 mm 7 W/m2
20:45 19.9 °C 16.5 °C 1008.5 hPa NNE 3.2 km/h 9.7 km/h 81% 0.0 mm 5 W/m2
20:50 19.8 °C 16.6 °C 1008.5 hPa NE 3.2 km/h 4.8 km/h 82% 0.0 mm 0 W/m2
20:55 19.8 °C 16.6 °C 1008.5 hPa Calm   3.2 km/h 82% 0.0 mm 0 W/m2
21:00 19.7 °C 16.5 °C 1008.8 hPa NW 3.2 km/h 9.7 km/h 82% 0.0 mm 0 W/m2
21:05 19.4 °C 15.9 °C 1009.1 hPa WNW 13 km/h 17.7 km/h 80% 0.0 mm 0 W/m2
21:10 18.7 °C 15.6 °C 1009.1 hPa NW 1.4 km/h 6.4 km/h 82% 0.2 mm 0 W/m2
21:15 18.1 °C 15.5 °C 1009.1 hPa West 1.4 km/h 17.7 km/h 85% 0.5 mm 0 W/m2
21:20 17.7 °C 15.5 °C 1009.1 hPa NNW 3.2 km/h 3.2 km/h 87% 1.3 mm 0 W/m2
21:25 17.5 °C 15.5 °C 1009.5 hPa WSW 1.4 km/h 1.6 km/h 88% 1.5 mm 7 W/m2
21:30 17.4 °C 15.7 °C 1009.5 hPa Calm   3.2 km/h 90% 1.5 mm 11 W/m2
21:35 17.3 °C 15.6 °C 1009.5 hPa Calm   3.2 km/h 90% 1.5 mm 7 W/m2
21:40 17.2 °C 15.5 °C 1009.5 hPa Calm   1.6 km/h 90% 1.5 mm 0 W/m2
21:45 17.2 °C 15.7 °C 1009.5 hPa Calm     91% 1.5 mm 0 W/m2
21:50 17.2 °C 15.9 °C 1009.5 hPa Calm     92% 1.5 mm 0 W/m2
21:55 17.2 °C 15.9 °C 1009.8 hPa Calm     92% 1.5 mm 0 W/m2
22:00 17.1 °C 15.8 °C 1009.8 hPa Calm     92% 1.5 mm 0 W/m2
22:05 17.1 °C 15.8 °C 1009.8 hPa Calm     92% 1.5 mm 0 W/m2
22:10 17 °C 15.9 °C 1009.8 hPa Calm     93% 1.5 mm 0 W/m2
22:15 16.9 °C 15.8 °C 1009.8 hPa SSE 1.4 km/h 1.6 km/h 93% 1.3 mm 0 W/m2
22:20 16.9 °C 15.8 °C 1010.2 hPa Calm   1.6 km/h 93% 0.5 mm 0 W/m2
22:25 16.8 °C 15.7 °C 1010.2 hPa SSE 1.4 km/h 1.6 km/h 93% 0.2 mm 0 W/m2
22:30 16.8 °C 15.7 °C 1010.2 hPa Calm     93% 0.2 mm 0 W/m2
22:35 16.7 °C 15.6 °C 1010.2 hPa SSE 1.6 km/h 1.6 km/h 93% 0.2 mm 0 W/m2
22:40 16.6 °C 15.5 °C 1010.2 hPa Calm     93% 0.0 mm 0 W/m2
22:45 16.5 °C 15.4 °C 1010.2 hPa Calm     93% 0.0 mm 0 W/m2
22:50 16.3 °C 15.2 °C 1010.2 hPa Calm   1.6 km/h 93% 0.0 mm 0 W/m2
22:55 16.3 °C 15.2 °C 1010.2 hPa Calm     93% 0.0 mm 0 W/m2
23:00 16.2 °C 15.1 °C 1010.2 hPa SSE 1.4 km/h 1.6 km/h 93% 0.0 mm 0 W/m2
23:05 16.1 °C 15 °C 1010.2 hPa Calm     93% 0.0 mm 0 W/m2
23:10 16.1 °C 15.1 °C 1010.2 hPa Calm     94% 0.0 mm 0 W/m2
23:15 16 °C 15 °C 1010.2 hPa Calm   1.6 km/h 94% 0.0 mm 0 W/m2
23:20 15.9 °C 14.9 °C 1010.2 hPa Calm     94% 0.0 mm 0 W/m2
23:25 15.8 °C 14.8 °C 1010.2 hPa Calm   3.2 km/h 94% 0.0 mm 0 W/m2
23:30 15.8 °C 14.8 °C 1010.2 hPa Calm   1.6 km/h 94% 0.0 mm 0 W/m2
23:35 15.8 °C 14.8 °C 1010.2 hPa SSW 1.4 km/h 3.2 km/h 94% 0.0 mm 0 W/m2
23:40 15.8 °C 14.8 °C 1010.2 hPa NNE 4.7 km/h 6.4 km/h 94% 0.0 mm 0 W/m2
23:45 15.9 °C 14.9 °C 1010.2 hPa Calm   3.2 km/h 94% 0.0 mm 0 W/m2
23:51 16 °C 15 °C 1010.2 hPa Calm   3.2 km/h 94% 0.0 mm 0 W/m2
23:56 16.1 °C 15 °C 1010.2 hPa Calm   4.8 km/h 93% 0.0 mm 0 W/m2
Juneau County Weather
Compliments of Weather Underground - 4 mb